Time;durP1;ratioP1;P1;durP2;ratioP2;P2;SDS_P1;SDS_P2;PMS_P1;PMS_P2;Temp;Humidity;BMP_temperature;BMP_pressure;BME280_temperature;BME280_humidity;BME280_pressure;Samples;Min_cycle;Max_cycle;Signal;HPM_P1;HPM_P2
2022/07/23 00:00:47;;;;;;;;;;;;;;;21.82;28.23;97988.50;4866819;29;1281;-77
2022/07/23 00:03:12;;;;;;;;;;;;;;;21.52;28.67;97989.72;4827530;29;1903;-77
2022/07/23 00:05:38;;;;;;;;;;;;;;;21.06;29.27;97986.00;4827499;29;948;-76
2022/07/23 00:08:03;;;;;;;;;;;;;;;21.83;28.07;97988.06;4827367;29;990;-77
2022/07/23 00:10:29;;;;;;;;;;;;;;;21.79;28.07;97993.03;4827687;29;986;-76
2022/07/23 00:12:54;;;;;;;;;;;;;;;21.77;28.14;97992.69;4827564;29;997;-77
2022/07/23 00:15:19;;;;;;;;;;;;;;;21.92;27.80;97998.75;4827545;29;1032;-77
2022/07/23 00:17:45;;;;;;;;;;;;;;;21.65;28.23;97981.28;4827405;29;1046;-77
2022/07/23 00:20:10;;;;;;;;;;;;;;;21.39;28.58;97991.69;4812374;29;1068;-77
2022/07/23 00:22:36;;;;;;;;;;;;;;;21.28;29.05;97991.91;4812335;29;1976;-77
2022/07/23 00:25:01;;;;;;;;;;;;;;;21.53;28.79;97982.81;4812077;29;1521;-77
2022/07/23 00:27:27;;;;;;;;;;;;;;;21.87;28.06;97987.19;4812408;29;981;-77
2022/07/23 00:29:52;;;;;;;;;;;;;;;21.69;28.44;97985.59;4823677;29;1109;-77
2022/07/23 00:32:18;;;;;;;;;;;;;;;21.94;28.06;97981.31;4824233;29;1293;-77
2022/07/23 00:34:43;;;;;;;;;;;;;;;21.76;28.06;97985.44;4850597;29;1243;-77
2022/07/23 00:37:09;;;;;;;;;;;;;;;21.44;28.58;97976.97;4861063;29;940;-77
2022/07/23 00:39:34;;;;;;;;;;;;;;;21.13;29.04;97983.00;4830021;29;1131;-76
2022/07/23 00:42:00;;;;;;;;;;;;;;;21.46;28.86;97988.69;4860969;29;1982;-77
2022/07/23 00:44:26;;;;;;;;;;;;;;;21.51;28.54;97988.13;4860593;29;971;-77
2022/07/23 00:46:53;;;;;;;;;;;;;;;21.77;27.98;97989.84;4860843;29;924;-76
2022/07/23 00:49:26;;;;;;;;;;;;;;;21.68;28.30;97984.03;4844953;29;948;-77
2022/07/23 00:51:51;;;;;;;;;;;;;;;21.67;28.11;97985.28;4811558;29;1293;-77
2022/07/23 00:54:17;;;;;;;;;;;;;;;21.37;28.93;97988.50;4826729;29;1026;-77
2022/07/23 00:56:43;;;;;;;;;;;;;;;21.15;29.00;97989.03;4811718;29;987;-77
2022/07/23 00:59:08;;;;;;;;;;;;;;;21.58;28.52;97987.94;4826865;29;1513;-77
2022/07/23 01:01:34;;;;;;;;;;;;;;;21.81;27.99;97993.38;4804724;29;939;-77
2022/07/23 01:03:59;;;;;;;;;;;;;;;21.62;28.26;97982.19;4790385;30;1907;-77
2022/07/23 01:06:25;;;;;;;;;;;;;;;21.93;27.93;97980.50;4790291;30;1092;-77
2022/07/23 01:08:50;;;;;;;;;;;;;;;21.77;28.16;97977.72;4790242;30;995;-77
2022/07/23 01:11:17;;;;;;;;;;;;;;;21.95;27.58;97980.06;4775395;30;1735;-77
2022/07/23 01:13:42;;;;;;;;;;;;;;;21.58;28.23;97976.63;4790305;30;1111;-76
2022/07/23 01:16:08;;;;;;;;;;;;;;;21.30;28.90;97976.13;4775371;30;1086;-76
2022/07/23 01:18:34;;;;;;;;;;;;;;;21.66;28.57;97977.19;4775341;30;1160;-76
2022/07/23 01:20:59;;;;;;;;;;;;;;;21.81;27.79;97979.22;4789958;30;952;-77
2022/07/23 01:23:25;;;;;;;;;;;;;;;21.76;27.94;97979.78;4776757;30;1982;-77
2022/07/23 01:25:54;;;;;;;;;;;;;;;21.82;27.90;97975.16;4757938;30;1103;-77
2022/07/23 01:28:21;;;;;;;;;;;;;;;21.93;27.96;97974.06;4772057;30;1246;-76
2022/07/23 01:30:48;;;;;;;;;;;;;;;21.72;28.15;97976.25;4772324;30;1156;-76
2022/07/23 01:33:13;;;;;;;;;;;;;;;21.33;28.61;97971.59;4800546;29;974;-77
2022/07/23 01:35:39;;;;;;;;;;;;;;;21.54;28.52;97970.25;4807641;29;1076;-77
2022/07/23 01:38:06;;;;;;;;;;;;;;;21.83;28.11;97981.59;4807748;29;1104;-77
2022/07/23 01:40:32;;;;;;;;;;;;;;;21.73;28.14;97968.53;4810247;29;1319;-77
2022/07/23 01:42:59;;;;;;;;;;;;;;;21.70;28.08;97963.75;4825557;29;1915;-76
2022/07/23 01:45:25;;;;;;;;;;;;;;;22.09;27.54;97971.94;4825909;29;1411;-77
2022/07/23 01:47:51;;;;;;;;;;;;;;;21.91;27.56;97976.53;4826055;29;1264;-77
2022/07/23 01:50:16;;;;;;;;;;;;;;;21.58;28.24;97968.13;4826191;29;1046;-77
2022/07/23 01:53:00;;;;;;;;;;;;;;;21.21;29.17;97961.78;4825940;29;959;-76
2022/07/23 01:55:26;;;;;;;;;;;;;;;21.83;28.01;97958.94;4846841;29;1687;-77
2022/07/23 01:57:52;;;;;;;;;;;;;;;21.87;27.90;97964.50;4847364;29;1265;-77
2022/07/23 02:00:20;;;;;;;;;;;;;;;21.79;27.75;97976.03;4848360;29;1297;-77
2022/07/23 02:02:48;;;;;;;;;;;;;;;21.78;28.11;97965.94;4848091;29;1915;-76
2022/07/23 02:05:13;;;;;;;;;;;;;;;21.65;28.12;97965.09;4862334;29;1310;-77
2022/07/23 02:07:39;;;;;;;;;;;;;;;21.29;28.70;97970.88;4862226;29;1025;-76
2022/07/23 02:10:05;;;;;;;;;;;;;;;21.30;28.88;97967.66;4862357;29;1382;-77
2022/07/23 02:12:30;;;;;;;;;;;;;;;21.87;28.02;97973.81;4846884;29;1277;-77
2022/07/23 02:14:56;;;;;;;;;;;;;;;21.69;28.01;97976.31;4792120;29;1272;-77
2022/07/23 02:17:23;;;;;;;;;;;;;;;21.52;28.39;97967.88;4792381;29;1202;-77
2022/07/23 02:19:49;;;;;;;;;;;;;;;21.83;27.90;97970.28;4807366;29;993;-77
2022/07/23 02:22:14;;;;;;;;;;;;;;;21.73;28.05;97972.16;4792030;29;1899;-77
2022/07/23 02:24:40;;;;;;;;;;;;;;;21.71;27.89;97976.66;4807285;29;1011;-76
2022/07/23 02:27:05;;;;;;;;;;;;;;;21.71;27.89;97979.50;4792143;29;944;-77
2022/07/23 02:29:32;;;;;;;;;;;;;;;21.89;27.92;97973.34;4791920;29;1287;-77
2022/07/23 02:31:57;;;;;;;;;;;;;;;21.89;27.75;97973.34;4792229;29;1061;-77
2022/07/23 02:34:23;;;;;;;;;;;;;;;21.52;28.57;97972.75;4792063;29;1510;-77
2022/07/23 02:36:49;;;;;;;;;;;;;;;21.19;28.79;97972.75;4778437;29;1168;-77
2022/07/23 02:39:14;;;;;;;;;;;;;;;21.51;28.63;97976.81;4789203;30;1529;-77
2022/07/23 02:41:40;;;;;;;;;;;;;;;21.71;27.89;97974.66;4802785;29;1002;-77
2022/07/23 02:44:07;;;;;;;;;;;;;;;21.67;28.13;97973.94;4806867;29;1973;-76
2022/07/23 02:46:32;;;;;;;;;;;;;;;21.75;27.86;97975.31;4837871;29;1249;-77
2022/07/23 02:48:58;;;;;;;;;;;;;;;21.81;27.76;97984.88;4846400;29;1100;-77
2022/07/23 02:51:24;;;;;;;;;;;;;;;21.38;28.54;97973.09;4846435;29;1601;-77
2022/07/23 02:53:57;;;;;;;;;;;;;;;21.18;29.10;97979.63;4831937;29;1160;-77
2022/07/23 02:56:22;;;;;;;;;;;;;;;21.60;28.25;97971.28;4843485;29;961;-77
2022/07/23 02:58:48;;;;;;;;;;;;;;;21.83;27.97;97971.06;4812882;29;1124;-77
2022/07/23 03:01:13;;;;;;;;;;;;;;;21.79;27.95;97987.34;4843334;29;959;-76
2022/07/23 03:03:39;;;;;;;;;;;;;;;21.84;27.69;97983.97;4828092;29;1993;-76
2022/07/23 03:06:04;;;;;;;;;;;;;;;21.87;27.90;97990.00;4824815;29;1328;-77
2022/07/23 03:08:30;;;;;;;;;;;;;;;21.16;28.98;97984.94;4809810;29;1171;-76
2022/07/23 03:10:55;;;;;;;;;;;;;;;21.41;28.57;97987.19;4825044;29;1254;-77
2022/07/23 03:13:21;;;;;;;;;;;;;;;21.99;27.49;97983.59;4824922;29;1171;-77
2022/07/23 03:15:46;;;;;;;;;;;;;;;21.91;27.55;97990.69;4795697;29;1240;-77
2022/07/23 03:18:12;;;;;;;;;;;;;;;21.75;28.06;98002.84;4806428;29;1282;-77
2022/07/23 03:20:38;;;;;;;;;;;;;;;21.84;27.72;98003.00;4821977;29;1212;-77
2022/07/23 03:23:03;;;;;;;;;;;;;;;21.67;28.09;97996.59;4806858;29;1974;-76
2022/07/23 03:25:29;;;;;;;;;;;;;;;21.50;28.36;97992.19;4824699;29;1103;-77
2022/07/23 03:27:55;;;;;;;;;;;;;;;21.34;28.48;98001.50;4824497;29;951;-76
2022/07/23 03:30:21;;;;;;;;;;;;;;;21.70;28.03;98001.34;4824631;29;995;-77
2022/07/23 03:32:47;;;;;;;;;;;;;;;21.75;27.75;98003.66;4809357;29;1155;-77
2022/07/23 03:35:13;;;;;;;;;;;;;;;21.82;27.95;98003.47;4770303;30;1245;-77
2022/07/23 03:37:48;;;;;;;;;;;;;;;21.78;27.64;98002.75;4773217;30;1411;-77
2022/07/23 03:40:13;;;;;;;;;;;;;;;21.81;27.68;98007.56;4773550;30;1604;-77
2022/07/23 03:42:41;;;;;;;;;;;;;;;21.43;28.42;97998.03;4790785;29;1904;-77
2022/07/23 03:45:06;;;;;;;;;;;;;;;21.28;28.54;98004.03;4806374;29;1063;-78
2022/07/23 03:47:32;;;;;;;;;;;;;;;21.74;28.11;97995.59;4806518;29;970;-77
2022/07/23 03:49:57;;;;;;;;;;;;;;;21.66;28.00;98006.34;4806287;29;1466;-77
2022/07/23 03:52:23;;;;;;;;;;;;;;;21.72;28.21;98004.56;4806642;29;1310;-77
2022/07/23 03:54:51;;;;;;;;;;;;;;;21.65;28.22;98003.94;4770066;30;1248;-77
2022/07/23 03:57:17;;;;;;;;;;;;;;;21.89;27.73;98007.34;4755644;30;1153;-77
2022/07/23 03:59:42;;;;;;;;;;;;;;;21.50;28.23;98009.19;4770228;30;1044;-77
2022/07/23 04:02:08;;;;;;;;;;;;;;;21.35;28.54;98007.94;4770276;30;1915;-77
2022/07/23 04:04:33;;;;;;;;;;;;;;;21.38;28.63;98012.72;4770765;30;1184;-77
2022/07/23 04:07:01;;;;;;;;;;;;;;;21.50;28.42;98009.19;4758990;30;1168;-77
2022/07/23 04:09:27;;;;;;;;;;;;;;;21.83;27.69;98016.38;4762204;30;1689;-77
2022/07/23 04:11:53;;;;;;;;;;;;;;;22.02;27.64;98011.00;4789786;29;1908;-75
2022/07/23 04:14:19;;;;;;;;;;;;;;;22.44;27.89;98022.41;4788141;29;1093;-72
2022/07/23 04:16:45;;;;;;;;;;;;;;;22.73;28.51;98020.28;4794137;29;1512;-72
2022/07/23 04:19:10;;;;;;;;;;;;;;;22.46;29.92;98022.75;4778360;29;1139;-73
2022/07/23 04:21:49;;;;;;;;;;;;;;;22.28;31.20;98015.56;4801392;29;1412;-78
2022/07/23 04:24:14;;;;;;;;;;;;;;;21.64;32.57;98020.13;4776214;30;1907;-75
2022/07/23 04:26:41;;;;;;;;;;;;;;;21.91;32.75;98021.84;4839784;29;1408;-72
2022/07/23 04:29:06;;;;;;;;;;;;;;;22.08;32.46;98020.56;4849696;29;1354;-73
2022/07/23 04:31:32;;;;;;;;;;;;;;;22.10;32.69;98035.06;4837602;29;1093;-75
2022/07/23 04:33:57;;;;;;;;;;;;;;;22.03;33.23;98023.94;4867701;29;1624;-73
2022/07/23 04:36:23;;;;;;;;;;;;;;;21.85;33.72;98024.44;4867885;29;1179;-75
2022/07/23 04:38:48;;;;;;;;;;;;;;;22.16;33.15;98021.19;4851828;29;1478;-71
2022/07/23 04:41:14;;;;;;;;;;;;;;;22.32;32.74;98027.56;4867296;29;1709;-76
2022/07/23 04:43:39;;;;;;;;;;;;;;;22.43;33.18;98023.63;4847737;29;1927;-74
2022/07/23 04:46:05;;;;;;;;;;;;;;;22.35;33.63;98023.06;4872064;29;1382;-74
2022/07/23 04:48:37;;;;;;;;;;;;;;;22.41;33.49;98026.13;4862363;29;1230;-75
2022/07/23 04:51:08;;;;;;;;;;;;;;;22.77;33.24;98029.47;4832897;29;1996;-74
2022/07/23 04:53:34;;;;;;;;;;;;;;;22.04;34.58;98036.88;4863332;29;1241;-72
2022/07/23 04:56:00;;;;;;;;;;;;;;;22.68;33.66;98035.03;4848071;29;1416;-74
2022/07/23 04:58:25;;;;;;;;;;;;;;;22.25;34.40;98035.50;4826740;29;1116;-72
2022/07/23 05:00:51;;;;;;;;;;;;;;;22.32;34.77;98044.59;4811409;29;1173;-74
2022/07/23 05:03:16;;;;;;;;;;;;;;;22.14;34.71;98030.13;4811401;29;1935;-75
2022/07/23 05:05:44;;;;;;;;;;;;;;;21.95;34.97;98034.66;4775176;29;1792;-77
2022/07/23 05:08:13;;;;;;;;;;;;;;;21.63;34.66;98041.19;4789896;29;1853;-79
2022/07/23 05:10:40;;;;;;;;;;;;;;;21.59;34.32;98035.63;4790494;29;1220;-79
2022/07/23 05:13:05;;;;;;;;;;;;;;;21.90;33.19;98037.25;4788983;29;1860;-78
2022/07/23 05:15:31;;;;;;;;;;;;;;;21.74;33.02;98041.72;4805908;29;1136;-79
2022/07/23 05:17:57;;;;;;;;;;;;;;;21.68;32.82;98046.31;4805398;29;1567;-79
2022/07/23 05:20:22;;;;;;;;;;;;;;;21.67;32.89;98041.13;4799874;29;1397;-78
2022/07/23 05:22:48;;;;;;;;;;;;;;;21.68;32.49;98043.50;4792864;29;1978;-78
2022/07/23 05:25:13;;;;;;;;;;;;;;;21.51;32.92;98039.09;4771747;30;1572;-79
2022/07/23 05:27:39;;;;;;;;;;;;;;;21.69;32.23;98049.94;4757411;30;1001;-79
2022/07/23 05:30:04;;;;;;;;;;;;;;;21.62;32.25;98050.16;4799656;29;1030;-78
2022/07/23 05:32:33;;;;;;;;;;;;;;;21.50;32.42;98043.97;4808021;29;1263;-78
2022/07/23 05:35:09;;;;;;;;;;;;;;;21.53;32.35;98045.09;4811975;29;2180;-79
2022/07/23 05:37:38;;;;;;;;;;;;;;;21.55;32.00;98034.13;4809998;29;1668;-78
2022/07/23 05:40:06;;;;;;;;;;;;;;;21.37;32.27;98039.44;4793159;29;1184;-79
2022/07/23 05:42:31;;;;;;;;;;;;;;;21.41;32.09;98045.81;4792971;29;1899;-79
2022/07/23 05:44:57;;;;;;;;;;;;;;;21.79;31.35;98043.22;4790400;29;1579;-78
2022/07/23 05:47:23;;;;;;;;;;;;;;;21.52;31.66;98037.84;4804266;29;1777;-78
2022/07/23 05:49:48;;;;;;;;;;;;;;;21.74;31.19;98041.72;4809827;29;1610;-78
2022/07/23 05:52:28;;;;;;;;;;;;;;;21.66;31.35;98039.50;4792583;29;1383;-78
2022/07/23 05:55:28;;;;;;;;;;;;;;;21.60;31.31;98036.41;4742373;30;1070;-78
2022/07/23 05:57:57;;;;;;;;;;;;;;;21.66;31.52;98040.31;4771644;30;1195;-79
2022/07/23 06:00:23;;;;;;;;;;;;;;;21.43;31.67;98034.84;4789522;30;1243;-79
2022/07/23 06:02:49;;;;;;;;;;;;;;;21.35;31.77;98041.91;4753426;30;1932;-79
2022/07/23 06:05:15;;;;;;;;;;;;;;;21.38;31.60;98046.69;4736064;30;1316;-79
2022/07/23 06:07:42;;;;;;;;;;;;;;;21.35;31.66;98037.06;4736275;30;1227;-78
2022/07/23 06:10:08;;;;;;;;;;;;;;;21.53;31.45;98042.28;4736305;30;1469;-79
2022/07/23 06:12:33;;;;;;;;;;;;;;;21.50;31.59;98043.97;4750419;30;922;-79
2022/07/23 06:14:59;;;;;;;;;;;;;;;21.36;31.52;98049.19;4735906;30;1203;-78
2022/07/23 06:17:26;;;;;;;;;;;;;;;21.47;31.21;98049.72;4735936;30;1301;-79
2022/07/23 06:19:52;;;;;;;;;;;;;;;21.60;31.18;98044.91;4735931;30;1082;-79
2022/07/23 06:22:17;;;;;;;;;;;;;;;21.58;31.19;98038.91;4718380;30;1981;-79
2022/07/23 06:24:43;;;;;;;;;;;;;;;21.64;30.93;98042.78;4718463;30;1083;-79
2022/07/23 06:27:08;;;;;;;;;;;;;;;21.51;31.20;98045.56;4717901;30;1215;-78
2022/07/23 06:29:34;;;;;;;;;;;;;;;21.41;31.33;98043.78;4700706;30;1277;-78
2022/07/23 06:31:59;;;;;;;;;;;;;;;21.76;30.68;98044.91;4688940;30;1451;-79
2022/07/23 06:34:25;;;;;;;;;;;;;;;21.64;30.83;98054.09;4726714;30;1004;-79
2022/07/23 06:36:50;;;;;;;;;;;;;;;21.72;30.68;98047.03;4735194;30;1238;-79
2022/07/23 06:39:16;;;;;;;;;;;;;;;21.32;31.46;98054.94;4753209;30;1236;-79
2022/07/23 06:41:45;;;;;;;;;;;;;;;21.62;31.07;98050.94;4753291;30;1105;-79
2022/07/23 06:44:11;;;;;;;;;;;;;;;21.54;31.06;98049.53;4752921;30;1916;-79
2022/07/23 06:46:37;;;;;;;;;;;;;;;21.57;30.91;98054.31;4738082;30;1682;-78
2022/07/23 06:49:04;;;;;;;;;;;;;;;21.58;31.02;98050.22;4753028;30;1173;-79
2022/07/23 06:51:29;;;;;;;;;;;;;;;21.39;31.33;98053.94;4735085;30;1174;-79
2022/07/23 06:53:55;;;;;;;;;;;;;;;21.63;31.03;98057.41;4761755;30;970;-79
2022/07/23 06:56:20;;;;;;;;;;;;;;;21.69;30.64;98056.41;4770609;30;1119;-79
2022/07/23 06:58:46;;;;;;;;;;;;;;;21.42;31.21;98064.41;4770654;30;984;-78
2022/07/23 07:01:11;;;;;;;;;;;;;;;21.41;31.27;98059.97;4717268;30;959;-79
2022/07/23 07:03:37;;;;;;;;;;;;;;;21.44;31.21;98053.41;4702682;30;1909;-79
2022/07/23 07:06:02;;;;;;;;;;;;;;;21.38;31.31;98060.84;4716360;30;1011;-79
2022/07/23 07:08:28;;;;;;;;;;;;;;;21.56;30.78;98059.19;4700333;30;1034;-79
2022/07/23 07:10:53;;;;;;;;;;;;;;;21.73;30.62;98057.13;4700596;30;997;-78
2022/07/23 07:13:19;;;;;;;;;;;;;;;21.69;30.60;98049.94;4700741;30;982;-79
2022/07/23 07:15:44;;;;;;;;;;;;;;;21.54;30.80;98063.69;4700272;30;1089;-78
2022/07/23 07:18:10;;;;;;;;;;;;;;;21.75;30.49;98060.28;4700573;30;915;-79
2022/07/23 07:20:35;;;;;;;;;;;;;;;21.39;31.41;98065.28;4712543;30;1088;-78
2022/07/23 07:23:01;;;;;;;;;;;;;;;21.51;30.84;98068.22;4716513;30;1900;-78
2022/07/23 07:25:26;;;;;;;;;;;;;;;21.38;31.23;98069.34;4700619;30;969;-79
2022/07/23 07:27:51;;;;;;;;;;;;;;;21.53;30.92;98059.25;4702675;30;1035;-78
2022/07/23 07:30:17;;;;;;;;;;;;;;;21.17;31.86;98059.31;4752723;30;1019;-77
2022/07/23 07:32:42;;;;;;;;;;;;;;;21.35;31.63;98064.56;4765216;30;1005;-79
2022/07/23 07:35:08;;;;;;;;;;;;;;;21.40;31.17;98066.84;4739905;30;1413;-79
2022/07/23 07:37:33;;;;;;;;;;;;;;;21.67;30.72;98061.72;4753373;30;1076;-79
2022/07/23 07:39:59;;;;;;;;;;;;;;;21.44;31.42;98061.91;4758024;30;973;-78
2022/07/23 07:42:24;;;;;;;;;;;;;;;21.53;31.32;98064.91;4756159;30;1986;-78
2022/07/23 07:44:50;;;;;;;;;;;;;;;21.65;30.69;98064.19;4756428;30;1058;-79
2022/07/23 07:47:15;;;;;;;;;;;;;;;21.61;31.09;98043.69;4756273;30;1001;-79
2022/07/23 07:49:43;;;;;;;;;;;;;;;21.58;31.19;98051.03;4738269;30;961;-79
2022/07/23 07:52:09;;;;;;;;;;;;;;;21.41;31.38;98046.63;4725677;30;1012;-79
2022/07/23 07:54:34;;;;;;;;;;;;;;;21.50;31.33;98065.78;4745957;30;1151;-79
2022/07/23 07:57:00;;;;;;;;;;;;;;;21.58;30.94;98050.22;4756277;30;1082;-79
2022/07/23 07:59:25;;;;;;;;;;;;;;;21.56;31.04;98061.22;4756060;30;912;-79
2022/07/23 08:01:51;;;;;;;;;;;;;;;21.35;31.29;98056.06;4756044;30;992;-79
2022/07/23 08:04:16;;;;;;;;;;;;;;;21.46;31.48;98053.78;4756126;30;1899;-79
2022/07/23 08:06:42;;;;;;;;;;;;;;;21.40;31.22;98049.88;4769163;30;946;-79
2022/07/23 08:09:07;;;;;;;;;;;;;;;21.39;31.31;98053.94;4751442;30;1222;-79
2022/07/23 08:11:33;;;;;;;;;;;;;;;21.37;31.76;98056.44;4741623;30;1015;-79
2022/07/23 08:13:58;;;;;;;;;;;;;;;21.38;31.68;98055.19;4782160;29;959;-79
2022/07/23 08:16:23;;;;;;;;;;;;;;;21.54;31.28;98058.00;4755840;30;925;-79
2022/07/23 08:18:49;;;;;;;;;;;;;;;21.22;31.72;98058.78;4755666;30;969;-79
2022/07/23 08:21:14;;;;;;;;;;;;;;;21.45;31.64;98057.84;4751030;30;992;-79
2022/07/23 08:23:40;;;;;;;;;;;;;;;21.69;31.11;98059.25;4755438;30;1896;-79
2022/07/23 08:26:05;;;;;;;;;;;;;;;21.65;31.01;98055.69;4755551;30;991;-79
2022/07/23 08:28:34;;;;;;;;;;;;;;;21.50;31.47;98060.13;4755582;30;922;-79
2022/07/23 08:30:59;;;;;;;;;;;;;;;21.37;31.53;98062.09;4755310;30;983;-79
2022/07/23 08:33:25;;;;;;;;;;;;;;;21.37;31.55;98062.09;4755253;30;971;-79
2022/07/23 08:35:52;;;;;;;;;;;;;;;21.51;31.33;98061.75;4755683;30;1053;-80
2022/07/23 08:38:18;;;;;;;;;;;;;;;21.51;31.48;98070.25;4755536;30;1013;-78
2022/07/23 08:40:45;;;;;;;;;;;;;;;21.53;31.65;98056.44;4754158;30;987;-79
2022/07/23 08:43:11;;;;;;;;;;;;;;;21.59;31.50;98051.81;4773168;30;1986;-78
2022/07/23 08:45:41;;;;;;;;;;;;;;;21.51;31.41;98056.09;4773185;30;942;-78
2022/07/23 08:48:16;;;;;;;;;;;;;;;21.59;31.15;98051.81;4772936;30;1007;-79
2022/07/23 08:50:51;;;;;;;;;;;;;;;21.61;31.23;98051.41;4756964;30;1167;-79
2022/07/23 08:53:17;;;;;;;;;;;;;;;21.68;31.33;98054.03;4771458;30;899;-79
2022/07/23 08:55:47;;;;;;;;;;;;;;;21.60;31.50;98059.06;4773136;30;981;-78
2022/07/23 08:58:13;;;;;;;;;;;;;;;21.65;31.32;98050.03;4773383;30;1333;-79
2022/07/23 09:00:38;;;;;;;;;;;;;;;21.78;31.24;98048.09;4773007;30;1055;-79
2022/07/23 09:03:04;;;;;;;;;;;;;;;21.49;31.54;98058.53;4772868;30;1986;-79
2022/07/23 09:05:29;;;;;;;;;;;;;;;21.56;31.34;98064.03;4789828;30;1027;-78
2022/07/23 09:08:05;;;;;;;;;;;;;;;21.68;31.21;98066.16;4796262;29;983;-79
2022/07/23 09:10:32;;;;;;;;;;;;;;;21.88;31.00;98057.53;4808780;29;1063;-80
2022/07/23 09:12:57;;;;;;;;;;;;;;;21.80;30.97;98062.59;4793585;29;845;-77
2022/07/23 09:15:22;;;;;;;;;;;;;;;21.45;31.48;98064.31;4793926;29;1010;-79
2022/07/23 09:17:48;;;;;;;;;;;;;;;21.29;31.74;98067.88;4808748;29;967;-79
2022/07/23 09:20:15;;;;;;;;;;;;;;;21.38;31.68;98063.69;4826249;29;993;-79
2022/07/23 09:22:46;;;;;;;;;;;;;;;21.65;31.23;98061.34;4826532;29;2036;-79
2022/07/23 09:25:13;;;;;;;;;;;;;;;21.55;31.44;98065.25;4826671;29;965;-79
2022/07/23 09:27:46;;;;;;;;;;;;;;;21.46;31.48;98070.78;4772225;30;954;-79
2022/07/23 09:30:11;;;;;;;;;;;;;;;21.49;31.35;98065.00;4772463;30;1158;-78
2022/07/23 09:32:37;;;;;;;;;;;;;;;21.61;31.05;98077.66;4752615;30;891;-78
2022/07/23 09:35:03;;;;;;;;;;;;;;;21.76;31.15;98070.41;4769449;30;1069;-79
2022/07/23 09:37:28;;;;;;;;;;;;;;;21.61;31.37;98063.50;4771880;30;987;-79
2022/07/23 09:39:53;;;;;;;;;;;;;;;21.72;31.03;98061.19;4772246;30;1031;-79
2022/07/23 09:42:20;;;;;;;;;;;;;;;21.62;31.17;98050.16;4772164;30;927;-79
2022/07/23 09:44:46;;;;;;;;;;;;;;;21.46;31.57;98056.63;4772405;30;1033;-79
2022/07/23 09:47:11;;;;;;;;;;;;;;;21.42;31.85;98058.72;4753968;30;922;-79
2022/07/23 09:49:37;;;;;;;;;;;;;;;21.68;31.10;98052.00;4754497;30;972;-79
2022/07/23 09:52:02;;;;;;;;;;;;;;;21.74;30.92;98050.22;4754301;30;982;-79
2022/07/23 09:54:31;;;;;;;;;;;;;;;21.60;31.31;98047.75;4754339;30;1029;-80
2022/07/23 09:56:57;;;;;;;;;;;;;;;21.69;31.10;98039.41;4754334;30;948;-78
2022/07/23 09:59:27;;;;;;;;;;;;;;;21.64;31.15;98042.78;4797549;29;985;-78
2022/07/23 10:01:53;;;;;;;;;;;;;;;21.64;31.12;98039.94;4807300;29;935;-79
2022/07/23 10:04:19;;;;;;;;;;;;;;;21.59;31.52;98043.31;4793139;29;1978;-79
2022/07/23 10:07:13;;;;;;;;;;;;;;;21.78;30.91;98036.75;4753790;30;934;-79
2022/07/23 10:10:11;;;;;;;;;;;;;;;21.80;31.24;98039.91;4771884;30;1052;-79
2022/07/23 10:15:17;;;;;;;;;;;;;;;21.67;30.99;98036.25;4741813;30;2154;-79
2022/07/23 10:17:43;;;;;;;;;;;;;;;21.49;31.48;98031.03;4782690;29;956;-78
2022/07/23 10:20:08;;;;;;;;;;;;;;;21.64;31.51;98028.63;4807407;29;1168;-78
2022/07/23 10:22:37;;;;;;;;;;;;;;;21.74;30.99;98021.09;4807188;29;1911;-79
2022/07/23 10:25:21;;;;;;;;;;;;;;;21.57;31.24;98015.47;4807668;29;995;-79
2022/07/23 10:27:49;;;;;;;;;;;;;;;21.54;31.31;98024.84;4807374;29;971;-79
2022/07/23 10:30:17;;;;;;;;;;;;;;;21.60;31.43;98036.41;4807277;29;945;-79
2022/07/23 10:32:48;;;;;;;;;;;;;;;21.66;31.28;98040.31;4807273;29;904;-79
2022/07/23 10:35:23;;;;;;;;;;;;;;;21.79;30.97;98026.22;4806854;29;1082;-79
2022/07/23 10:37:53;;;;;;;;;;;;;;;21.50;31.70;98026.16;4807336;29;984;-80
2022/07/23 10:40:19;;;;;;;;;;;;;;;21.60;31.18;98025.09;4807155;29;984;-79
2022/07/23 10:42:45;;;;;;;;;;;;;;;21.65;31.13;98018.09;4812215;29;1978;-79
2022/07/23 10:45:23;;;;;;;;;;;;;;;21.63;31.38;98012.09;4842731;29;918;-78
2022/07/23 10:47:50;;;;;;;;;;;;;;;21.84;30.78;98006.63;4884792;29;1021;-79
2022/07/23 10:50:22;;;;;;;;;;;;;;;21.70;31.26;98009.84;4901362;29;1072;-79
2022/07/23 10:53:06;;;;;;;;;;;;;;;21.52;31.63;98007.50;4901219;29;934;-79
2022/07/23 10:55:31;;;;;;;;;;;;;;;21.59;31.59;98004.47;4901601;29;980;-79
2022/07/23 10:57:57;;;;;;;;;;;;;;;21.60;31.31;98013.75;4877338;29;1080;-79
2022/07/23 11:00:23;;;;;;;;;;;;;;;21.65;31.46;98021.72;4880316;29;1269;-78
2022/07/23 11:02:49;;;;;;;;;;;;;;;21.73;31.22;98008.97;4824930;29;1935;-79
2022/07/23 11:05:25;;;;;;;;;;;;;;;21.81;31.03;98007.56;4810136;29;1029;-79
2022/07/23 11:08:10;;;;;;;;;;;;;;;21.70;31.11;98007.03;4809896;29;930;-79
2022/07/23 11:10:39;;;;;;;;;;;;;;;21.72;31.23;98009.44;4825184;29;1019;-79
2022/07/23 11:13:22;;;;;;;;;;;;;;;21.57;31.33;98003.34;4825144;29;1087;-80
2022/07/23 11:16:08;;;;;;;;;;;;;;;21.58;31.50;98010.59;4828550;29;1113;-80
2022/07/23 11:18:39;;;;;;;;;;;;;;;21.67;31.27;98015.63;4819892;29;1080;-80
2022/07/23 11:21:29;;;;;;;;;;;;;;;21.67;31.34;98007.94;4792181;29;959;-80
2022/07/23 11:24:07;;;;;;;;;;;;;;;21.71;31.38;98002.97;4783051;29;1904;-79
2022/07/23 11:26:42;;;;;;;;;;;;;;;21.55;31.87;98000.16;4782202;29;1272;-79
2022/07/23 11:29:30;;;;;;;;;;;;;;;21.52;31.54;97996.19;4771876;30;1239;-80
2022/07/23 11:31:57;;;;;;;;;;;;;;;21.84;31.40;98012.31;4783456;30;1177;-79
2022/07/23 11:34:31;;;;;;;;;;;;;;;21.47;31.81;98005.22;4809155;29;1267;-78
2022/07/23 11:36:57;;;;;;;;;;;;;;;21.60;31.63;97996.78;4789494;30;1347;-79
2022/07/23 11:39:24;;;;;;;;;;;;;;;21.55;31.78;98008.63;4774324;30;1140;-79
2022/07/23 11:41:50;;;;;;;;;;;;;;;21.64;31.72;98002.34;4774132;30;1005;-80
2022/07/23 11:44:25;;;;;;;;;;;;;;;21.79;31.27;98004.34;4738628;30;1991;-79
2022/07/23 11:46:57;;;;;;;;;;;;;;;21.61;31.34;98004.06;4738303;30;1420;-79
2022/07/23 11:49:23;;;;;;;;;;;;;;;21.58;31.62;98007.75;4686307;30;1235;-79
2022/07/23 11:52:02;;;;;;;;;;;;;;;21.62;31.62;98010.50;4686147;30;1017;-80
2022/07/23 11:54:28;;;;;;;;;;;;;;;21.58;31.59;98019.09;4686214;30;962;-79
2022/07/23 11:56:57;;;;;;;;;;;;;;;21.90;31.26;98009.72;4686536;30;1433;-80
2022/07/23 11:59:22;;;;;;;;;;;;;;;21.97;31.03;98008.75;4686149;30;1007;-80
2022/07/23 12:02:00;;;;;;;;;;;;;;;21.81;31.36;98007.56;4686318;30;970;-79
2022/07/23 12:04:36;;;;;;;;;;;;;;;21.78;31.17;98013.31;4668724;30;1920;-79
2022/07/23 12:07:02;;;;;;;;;;;;;;;21.89;31.12;98013.00;4703239;30;1403;-79
2022/07/23 12:09:28;;;;;;;;;;;;;;;21.56;31.47;98007.41;4674588;30;990;-78
2022/07/23 12:11:59;;;;;;;;;;;;;;;21.72;31.29;98010.22;4685965;30;1303;-79
2022/07/23 12:14:24;;;;;;;;;;;;;;;21.59;31.65;98017.84;4688593;30;940;-79
2022/07/23 12:17:09;;;;;;;;;;;;;;;21.61;31.69;98009.72;4714844;30;1101;-79
2022/07/23 12:19:34;;;;;;;;;;;;;;;21.80;31.06;98014.44;4738001;30;914;-80
2022/07/23 12:22:00;;;;;;;;;;;;;;;21.69;31.21;97996.94;4738030;30;958;-79
2022/07/23 12:24:25;;;;;;;;;;;;;;;21.71;31.10;98008.63;4737912;30;1912;-80
2022/07/23 12:27:09;;;;;;;;;;;;;;;21.64;31.62;98011.63;4737143;30;946;-79
2022/07/23 12:29:36;;;;;;;;;;;;;;;21.64;31.48;98003.16;4743742;30;922;-79
2022/07/23 12:32:01;;;;;;;;;;;;;;;21.82;31.26;98002.69;4773505;30;1003;-79
2022/07/23 12:34:27;;;;;;;;;;;;;;;21.68;31.29;98011.56;4775181;30;1040;-79
2022/07/23 12:36:52;;;;;;;;;;;;;;;21.55;31.58;98012.28;4791999;29;1419;-80
2022/07/23 12:39:32;;;;;;;;;;;;;;;21.45;31.77;98001.22;4827708;29;944;-79
2022/07/23 12:41:58;;;;;;;;;;;;;;;21.58;31.60;98010.59;4831597;29;953;-80
2022/07/23 12:44:23;;;;;;;;;;;;;;;21.68;31.47;98003.06;4866474;29;1964;-80
2022/07/23 12:46:50;;;;;;;;;;;;;;;21.56;31.33;98007.41;4826836;29;926;-79
2022/07/23 12:49:25;;;;;;;;;;;;;;;21.57;31.50;97992.81;4827030;29;1024;-79
2022/07/23 12:51:50;;;;;;;;;;;;;;;21.57;31.46;97997.69;4827007;29;944;-79
2022/07/23 12:54:15;;;;;;;;;;;;;;;21.78;31.03;97996.31;4827310;29;1047;-79
2022/07/23 12:56:44;;;;;;;;;;;;;;;21.82;31.02;97991.34;4827215;29;963;-78
2022/07/23 12:59:10;;;;;;;;;;;;;;;21.66;31.16;97995.00;4826904;29;1033;-79
2022/07/23 13:01:39;;;;;;;;;;;;;;;21.60;31.55;97988.28;4808847;29;1037;-79
2022/07/23 13:04:08;;;;;;;;;;;;;;;21.55;31.66;97995.31;4808824;29;1935;-80